This is the latest recevied weather packets stored in our database for station/object AC1IX. If no packets are shown the sender has not sent any weather packets the latest 1 day(s).
| Time | Temp. | Humidity | Pressure | Rain* | Wind** | Luminosity | Snow |
|---|---|---|---|---|---|---|---|
| 1778023956 | 16.11° C | 93% | 1008.9 hPa | 0 mm | 0 m/s | 0 W/m² | - |
| 1778023652 | 16.11° C | 93% | 1008.6 hPa | 0 mm | 0 m/s | 0 W/m² | - |
| 1778023350 | 16.11° C | 93% | 1008.5 hPa | 0 mm | 0 m/s | 1 W/m² | - |
| 1778023046 | 16.67° C | 93% | 1008.6 hPa | 0 mm | 0 m/s | 4 W/m² | - |
| 1778022745 | 16.67° C | 92% | 1008.6 hPa | 0 mm | 0 m/s | 6 W/m² | - |
| 1778022443 | 16.67° C | 92% | 1008.6 hPa | 0 mm | 0 m/s | 7 W/m² | - |
| 1778022139 | 16.67° C | 92% | 1008.8 hPa | 0 mm | 0 m/s | 11 W/m² | - |
| 1778021836 | 16.67° C | 93% | 1008.9 hPa | 0 mm | 0 m/s | 19 W/m² | - |
| 1778021533 | 16.11° C | 92% | 1009.1 hPa | 0 mm | 0 m/s | 12 W/m² | - |
| 1778021228 | 16.11° C | 92% | 1009 hPa | 0 mm | 0 m/s | 13 W/m² | - |
| 1778020926 | 16.67° C | 94% | 1008.8 hPa | 0 mm | 0 m/s | 4 W/m² | - |
| 1778020624 | 16.67° C | 93% | 1008.9 hPa | 0 mm | 0.45 m/s, 240° | 6 W/m² | - |
| 1778020319 | 16.67° C | 92% | 1008.9 hPa | 0 mm | 0 m/s | 5 W/m² | - |
| 1778020016 | 16.67° C | 91% | 1008.8 hPa | 0 mm | 0.45 m/s, 293° | 10 W/m² | - |
| 1778019712 | 17.22° C | 89% | 1008.5 hPa | 1.78 mm | 0 m/s | 11 W/m² | - |
| 1778019409 | 17.78° C | 87% | 1008.4 hPa | 1.78 mm | 0 m/s | 11 W/m² | - |
| 1778019106 | 18.33° C | 82% | 1008.3 hPa | 0 mm | 0.89 m/s, 248° | 15 W/m² | - |
| 1778018803 | 19.44° C | 79% | 1008.1 hPa | 0 mm | 0 m/s | 18 W/m² | - |
| 1778018500 | 20.56° C | 68% | 1008 hPa | 0 mm | 0.89 m/s, 312° | 29 W/m² | - |
| 1778018198 | 21.67° C | 63% | 1007.7 hPa | 0 mm | 0 m/s | 28 W/m² | - |
| 1778017896 | 23.33° C | 53% | 1007.2 hPa | 0 mm | 0.45 m/s, 303° | 10 W/m² | - |
| 1778017594 | 24.44° C | 41% | 1006.9 hPa | 0 mm | 0.45 m/s, 312° | 8 W/m² | - |
| 1778017291 | 24.44° C | 41% | 1006.2 hPa | 0 mm | 2.24 m/s, 257° | 10 W/m² | - |
| 1778016988 | 25° C | 41% | 1006 hPa | 0 mm | 0.89 m/s, 282° | 23 W/m² | - |
| 1778016685 | 25° C | 43% | 1006.1 hPa | 0 mm | 0.45 m/s, 273° | 26 W/m² | - |
* Rain latest hour (hover to see other rain measurements)
** Current wind speed in m/s (hover to see current wind gust speed)